Terminal Aerodrome Forecast
Issued by NWS

Home | Current Version | Previous Version | Graphics & Text | Print | Product List | Glossary On
Versions: 1 2 3 4 5 6 7 8 9 10 11 12 13 14 15 16 17 18 19 20 21 22 23 24 25
000
FTUS43 KMPX 271720
TAFRNH
TAF
KRNH 271720Z 2718/2818 10003KT P6SM SCT250
     FM272100 23005KT P6SM FEW050 BKN250
     FM280700 20005KT P6SM VCTS BKN050CB BKN120
      TEMPO 2809/2812 3SM SHRA OVC050
     FM281200 16006KT P6SM VCSH BKN030 OVC050=

USA.gov is the U.S. government's official web portal to all federal, state and local government web resources and services.